sensor_id;sensor_type;location;lat;lon;timestamp;P1;durP1;ratioP1;P2;durP2;ratioP2
22697;SDS011;11516;51.612;7.510;2022-09-09T00:01:38;2.15;;;0.82;;
22697;SDS011;11516;51.612;7.510;2022-09-09T00:09:31;2.10;;;0.83;;
22697;SDS011;11516;51.612;7.510;2022-09-09T00:17:12;3.53;;;1.40;;
22697;SDS011;11516;51.612;7.510;2022-09-09T00:19:46;2.90;;;2.00;;
22697;SDS011;11516;51.612;7.510;2022-09-09T00:22:25;4.30;;;2.15;;
22697;SDS011;11516;51.612;7.510;2022-09-09T00:24:56;5.03;;;2.70;;
22697;SDS011;11516;51.612;7.510;2022-09-09T00:27:35;4.20;;;2.10;;
22697;SDS011;11516;51.612;7.510;2022-09-09T00:30:14;3.92;;;2.10;;
22697;SDS011;11516;51.612;7.510;2022-09-09T00:32:54;4.37;;;2.33;;
22697;SDS011;11516;51.612;7.510;2022-09-09T00:37:52;3.25;;;1.70;;
22697;SDS011;11516;51.612;7.510;2022-09-09T00:40:28;4.18;;;2.03;;
22697;SDS011;11516;51.612;7.510;2022-09-09T00:48:26;2.50;;;1.35;;
22697;SDS011;11516;51.612;7.510;2022-09-09T00:51:28;3.40;;;1.67;;
22697;SDS011;11516;51.612;7.510;2022-09-09T00:56:41;3.08;;;1.60;;
22697;SDS011;11516;51.612;7.510;2022-09-09T01:01:56;3.17;;;1.48;;
22697;SDS011;11516;51.612;7.510;2022-09-09T01:04:32;2.55;;;1.50;;
22697;SDS011;11516;51.612;7.510;2022-09-09T01:07:03;4.10;;;2.60;;
22697;SDS011;11516;51.612;7.510;2022-09-09T01:09:56;4.90;;;2.13;;
22697;SDS011;11516;51.612;7.510;2022-09-09T01:15:16;1.37;;;1.07;;
22697;SDS011;11516;51.612;7.510;2022-09-09T01:18:01;2.60;;;1.10;;
22697;SDS011;11516;51.612;7.510;2022-09-09T01:28:44;3.97;;;1.75;;
22697;SDS011;11516;51.612;7.510;2022-09-09T01:31:14;4.07;;;2.17;;
22697;SDS011;11516;51.612;7.510;2022-09-09T01:33:42;5.03;;;2.33;;
22697;SDS011;11516;51.612;7.510;2022-09-09T01:39:03;4.40;;;2.28;;
22697;SDS011;11516;51.612;7.510;2022-09-09T01:41:29;3.33;;;2.10;;
22697;SDS011;11516;51.612;7.510;2022-09-09T01:43:55;6.23;;;2.43;;
22697;SDS011;11516;51.612;7.510;2022-09-09T01:46:22;3.78;;;1.73;;
22697;SDS011;11516;51.612;7.510;2022-09-09T01:48:48;3.25;;;1.70;;
22697;SDS011;11516;51.612;7.510;2022-09-09T01:51:16;2.45;;;1.20;;
22697;SDS011;11516;51.612;7.510;2022-09-09T01:53:41;3.47;;;1.40;;
22697;SDS011;11516;51.612;7.510;2022-09-09T01:56:12;2.33;;;1.50;;
22697;SDS011;11516;51.612;7.510;2022-09-09T01:58:58;2.40;;;1.67;;
22697;SDS011;11516;51.612;7.510;2022-09-09T02:07:01;3.28;;;1.85;;
22697;SDS011;11516;51.612;7.510;2022-09-09T02:09:26;4.05;;;2.00;;
22697;SDS011;11516;51.612;7.510;2022-09-09T02:12:09;4.25;;;1.85;;
22697;SDS011;11516;51.612;7.510;2022-09-09T02:14:40;2.70;;;1.77;;
22697;SDS011;11516;51.612;7.510;2022-09-09T02:17:11;2.95;;;1.83;;
22697;SDS011;11516;51.612;7.510;2022-09-09T02:19:44;3.38;;;2.13;;
22697;SDS011;11516;51.612;7.510;2022-09-09T02:22:14;2.75;;;1.65;;
22697;SDS011;11516;51.612;7.510;2022-09-09T02:24:43;4.43;;;1.80;;
22697;SDS011;11516;51.612;7.510;2022-09-09T02:27:11;3.17;;;1.83;;
22697;SDS011;11516;51.612;7.510;2022-09-09T02:29:39;2.50;;;1.90;;
22697;SDS011;11516;51.612;7.510;2022-09-09T02:32:13;2.92;;;1.63;;
22697;SDS011;11516;51.612;7.510;2022-09-09T02:34:43;3.00;;;1.70;;
22697;SDS011;11516;51.612;7.510;2022-09-09T02:37:12;2.15;;;1.83;;
22697;SDS011;11516;51.612;7.510;2022-09-09T02:39:41;4.00;;;2.00;;
22697;SDS011;11516;51.612;7.510;2022-09-09T02:42:07;1.97;;;1.70;;
22697;SDS011;11516;51.612;7.510;2022-09-09T02:44:33;3.17;;;1.90;;
22697;SDS011;11516;51.612;7.510;2022-09-09T02:47:12;4.22;;;2.10;;
22697;SDS011;11516;51.612;7.510;2022-09-09T02:53:04;3.47;;;1.92;;
22697;SDS011;11516;51.612;7.510;2022-09-09T02:58:20;3.22;;;1.90;;
22697;SDS011;11516;51.612;7.510;2022-09-09T03:00:47;4.10;;;2.20;;
22697;SDS011;11516;51.612;7.510;2022-09-09T03:03:15;3.67;;;2.30;;
22697;SDS011;11516;51.612;7.510;2022-09-09T03:05:43;4.82;;;2.70;;
22697;SDS011;11516;51.612;7.510;2022-09-09T03:08:09;3.83;;;2.30;;
22697;SDS011;11516;51.612;7.510;2022-09-09T03:10:35;3.67;;;2.47;;
22697;SDS011;11516;51.612;7.510;2022-09-09T03:13:01;4.40;;;2.40;;
22697;SDS011;11516;51.612;7.510;2022-09-09T03:15:29;5.20;;;2.50;;
22697;SDS011;11516;51.612;7.510;2022-09-09T03:17:56;3.35;;;2.53;;
22697;SDS011;11516;51.612;7.510;2022-09-09T03:20:23;6.43;;;2.38;;
22697;SDS011;11516;51.612;7.510;2022-09-09T03:22:51;2.83;;;2.03;;
22697;SDS011;11516;51.612;7.510;2022-09-09T03:25:17;5.63;;;2.13;;
22697;SDS011;11516;51.612;7.510;2022-09-09T03:27:43;3.50;;;2.00;;
22697;SDS011;11516;51.612;7.510;2022-09-09T03:30:08;3.13;;;2.00;;
22697;SDS011;11516;51.612;7.510;2022-09-09T03:32:34;3.50;;;2.07;;
22697;SDS011;11516;51.612;7.510;2022-09-09T03:35:00;3.90;;;1.80;;
22697;SDS011;11516;51.612;7.510;2022-09-09T03:37:25;4.60;;;2.10;;
22697;SDS011;11516;51.612;7.510;2022-09-09T03:39:51;3.72;;;1.80;;
22697;SDS011;11516;51.612;7.510;2022-09-09T03:42:19;2.72;;;1.98;;
22697;SDS011;11516;51.612;7.510;2022-09-09T03:44:45;3.93;;;2.07;;
22697;SDS011;11516;51.612;7.510;2022-09-09T03:47:18;2.88;;;1.90;;
22697;SDS011;11516;51.612;7.510;2022-09-09T03:49:45;5.32;;;2.25;;
22697;SDS011;11516;51.612;7.510;2022-09-09T03:52:11;2.47;;;2.00;;
22697;SDS011;11516;51.612;7.510;2022-09-09T03:54:37;3.28;;;1.85;;
22697;SDS011;11516;51.612;7.510;2022-09-09T03:57:03;3.20;;;2.20;;
22697;SDS011;11516;51.612;7.510;2022-09-09T03:59:29;4.07;;;2.33;;
22697;SDS011;11516;51.612;7.510;2022-09-09T04:01:55;3.20;;;2.20;;
22697;SDS011;11516;51.612;7.510;2022-09-09T04:04:22;3.87;;;2.53;;
22697;SDS011;11516;51.612;7.510;2022-09-09T04:06:47;4.75;;;2.30;;
22697;SDS011;11516;51.612;7.510;2022-09-09T04:09:13;4.25;;;2.38;;
22697;SDS011;11516;51.612;7.510;2022-09-09T04:11:39;3.40;;;2.20;;
22697;SDS011;11516;51.612;7.510;2022-09-09T04:14:05;3.90;;;2.50;;
22697;SDS011;11516;51.612;7.510;2022-09-09T04:16:31;5.10;;;2.70;;
22697;SDS011;11516;51.612;7.510;2022-09-09T04:19:01;5.18;;;2.53;;
22697;SDS011;11516;51.612;7.510;2022-09-09T04:21:29;5.35;;;2.15;;
22697;SDS011;11516;51.612;7.510;2022-09-09T04:23:55;6.05;;;2.30;;
22697;SDS011;11516;51.612;7.510;2022-09-09T04:26:20;3.92;;;2.20;;
22697;SDS011;11516;51.612;7.510;2022-09-09T04:28:46;3.97;;;2.00;;
22697;SDS011;11516;51.612;7.510;2022-09-09T04:31:16;6.20;;;2.10;;
22697;SDS011;11516;51.612;7.510;2022-09-09T04:33:44;6.65;;;2.65;;
22697;SDS011;11516;51.612;7.510;2022-09-09T04:36:11;4.37;;;2.33;;
22697;SDS011;11516;51.612;7.510;2022-09-09T04:38:38;6.30;;;1.80;;
22697;SDS011;11516;51.612;7.510;2022-09-09T04:41:04;4.40;;;2.00;;
22697;SDS011;11516;51.612;7.510;2022-09-09T04:43:30;4.30;;;2.13;;
22697;SDS011;11516;51.612;7.510;2022-09-09T04:45:56;3.30;;;1.90;;
22697;SDS011;11516;51.612;7.510;2022-09-09T04:48:21;5.33;;;1.97;;
22697;SDS011;11516;51.612;7.510;2022-09-09T04:51:20;4.32;;;2.13;;
22697;SDS011;11516;51.612;7.510;2022-09-09T04:53:39;5.43;;;2.13;;
22697;SDS011;11516;51.612;7.510;2022-09-09T04:56:09;6.72;;;3.22;;
22697;SDS011;11516;51.612;7.510;2022-09-09T04:58:39;4.32;;;2.50;;
22697;SDS011;11516;51.612;7.510;2022-09-09T05:01:20;6.22;;;3.05;;
22697;SDS011;11516;51.612;7.510;2022-09-09T05:03:48;5.47;;;2.90;;
22697;SDS011;11516;51.612;7.510;2022-09-09T05:06:14;6.18;;;3.20;;
22697;SDS011;11516;51.612;7.510;2022-09-09T05:08:44;7.15;;;3.17;;
22697;SDS011;11516;51.612;7.510;2022-09-09T05:11:20;5.23;;;2.90;;
22697;SDS011;11516;51.612;7.510;2022-09-09T05:13:48;4.95;;;2.53;;
22697;SDS011;11516;51.612;7.510;2022-09-09T05:16:18;6.15;;;2.50;;
22697;SDS011;11516;51.612;7.510;2022-09-09T05:18:51;4.20;;;2.35;;
22697;SDS011;11516;51.612;7.510;2022-09-09T05:21:17;4.63;;;2.30;;
22697;SDS011;11516;51.612;7.510;2022-09-09T05:23:44;4.40;;;2.67;;
22697;SDS011;11516;51.612;7.510;2022-09-09T05:26:12;5.60;;;2.60;;
22697;SDS011;11516;51.612;7.510;2022-09-09T05:28:42;7.25;;;3.08;;
22697;SDS011;11516;51.612;7.510;2022-09-09T05:34:22;6.65;;;2.63;;
22697;SDS011;11516;51.612;7.510;2022-09-09T05:36:48;6.47;;;3.42;;
22697;SDS011;11516;51.612;7.510;2022-09-09T05:39:13;5.35;;;3.30;;
22697;SDS011;11516;51.612;7.510;2022-09-09T05:41:49;6.30;;;3.28;;
22697;SDS011;11516;51.612;7.510;2022-09-09T05:44:23;6.80;;;3.25;;
22697;SDS011;11516;51.612;7.510;2022-09-09T05:46:54;7.72;;;3.58;;
22697;SDS011;11516;51.612;7.510;2022-09-09T05:49:25;7.95;;;4.20;;
22697;SDS011;11516;51.612;7.510;2022-09-09T05:51:51;5.03;;;3.60;;
22697;SDS011;11516;51.612;7.510;2022-09-09T05:54:17;6.78;;;3.30;;
22697;SDS011;11516;51.612;7.510;2022-09-09T05:56:43;5.05;;;3.20;;
22697;SDS011;11516;51.612;7.510;2022-09-09T05:59:09;5.57;;;3.40;;
22697;SDS011;11516;51.612;7.510;2022-09-09T06:01:35;7.85;;;3.35;;
22697;SDS011;11516;51.612;7.510;2022-09-09T06:04:05;6.15;;;3.08;;
22697;SDS011;11516;51.612;7.510;2022-09-09T06:06:32;7.47;;;3.20;;
22697;SDS011;11516;51.612;7.510;2022-09-09T06:09:02;5.88;;;2.65;;
22697;SDS011;11516;51.612;7.510;2022-09-09T06:11:31;6.20;;;3.13;;
22697;SDS011;11516;51.612;7.510;2022-09-09T06:13:57;6.15;;;3.10;;
22697;SDS011;11516;51.612;7.510;2022-09-09T06:16:24;5.20;;;2.95;;
22697;SDS011;11516;51.612;7.510;2022-09-09T06:18:52;7.70;;;3.53;;
22697;SDS011;11516;51.612;7.510;2022-09-09T06:21:25;6.82;;;3.60;;
22697;SDS011;11516;51.612;7.510;2022-09-09T06:23:52;6.90;;;3.70;;
22697;SDS011;11516;51.612;7.510;2022-09-09T06:26:19;7.10;;;3.40;;
22697;SDS011;11516;51.612;7.510;2022-09-09T06:28:46;6.85;;;3.40;;
22697;SDS011;11516;51.612;7.510;2022-09-09T06:31:14;7.60;;;3.58;;
22697;SDS011;11516;51.612;7.510;2022-09-09T06:33:49;6.25;;;3.75;;
22697;SDS011;11516;51.612;7.510;2022-09-09T06:36:17;9.35;;;4.00;;
22697;SDS011;11516;51.612;7.510;2022-09-09T06:38:44;8.70;;;4.33;;
22697;SDS011;11516;51.612;7.510;2022-09-09T06:41:11;8.55;;;4.00;;
22697;SDS011;11516;51.612;7.510;2022-09-09T06:43:38;7.40;;;3.50;;
22697;SDS011;11516;51.612;7.510;2022-09-09T06:46:05;4.70;;;2.85;;
22697;SDS011;11516;51.612;7.510;2022-09-09T06:48:34;5.35;;;3.08;;
22697;SDS011;11516;51.612;7.510;2022-09-09T06:53:26;6.03;;;2.97;;
22697;SDS011;11516;51.612;7.510;2022-09-09T06:55:52;5.82;;;2.33;;
22697;SDS011;11516;51.612;7.510;2022-09-09T06:58:18;6.68;;;2.50;;
22697;SDS011;11516;51.612;7.510;2022-09-09T07:00:43;5.25;;;2.38;;
22697;SDS011;11516;51.612;7.510;2022-09-09T07:03:09;5.72;;;2.55;;
22697;SDS011;11516;51.612;7.510;2022-09-09T07:05:35;7.22;;;3.92;;
22697;SDS011;11516;51.612;7.510;2022-09-09T07:08:02;6.87;;;2.80;;
22697;SDS011;11516;51.612;7.510;2022-09-09T07:10:31;6.63;;;2.70;;
22697;SDS011;11516;51.612;7.510;2022-09-09T07:12:56;4.63;;;2.58;;
22697;SDS011;11516;51.612;7.510;2022-09-09T07:15:22;6.53;;;2.60;;
22697;SDS011;11516;51.612;7.510;2022-09-09T07:17:48;7.43;;;2.77;;
22697;SDS011;11516;51.612;7.510;2022-09-09T07:20:32;7.22;;;2.90;;
22697;SDS011;11516;51.612;7.510;2022-09-09T07:23:16;6.80;;;2.75;;
22697;SDS011;11516;51.612;7.510;2022-09-09T07:25:45;7.00;;;3.47;;
22697;SDS011;11516;51.612;7.510;2022-09-09T07:41:59;4.85;;;2.08;;
22697;SDS011;11516;51.612;7.510;2022-09-09T07:44:43;5.78;;;2.30;;
22697;SDS011;11516;51.612;7.510;2022-09-09T07:57:34;5.32;;;2.00;;
22697;SDS011;11516;51.612;7.510;2022-09-09T08:03:16;6.82;;;2.72;;
22697;SDS011;11516;51.612;7.510;2022-09-09T08:05:49;5.20;;;2.10;;
22697;SDS011;11516;51.612;7.510;2022-09-09T08:08:26;5.63;;;2.33;;
22697;SDS011;11516;51.612;7.510;2022-09-09T08:10:59;10.75;;;4.47;;
22697;SDS011;11516;51.612;7.510;2022-09-09T08:13:40;6.43;;;2.60;;
22697;SDS011;11516;51.612;7.510;2022-09-09T08:16:14;6.43;;;2.80;;
22697;SDS011;11516;51.612;7.510;2022-09-09T08:19:30;4.82;;;2.50;;
22697;SDS011;11516;51.612;7.510;2022-09-09T08:22:04;6.67;;;2.63;;
22697;SDS011;11516;51.612;7.510;2022-09-09T08:24:30;6.10;;;3.05;;
22697;SDS011;11516;51.612;7.510;2022-09-09T08:27:02;5.95;;;2.08;;
22697;SDS011;11516;51.612;7.510;2022-09-09T08:29:49;5.70;;;1.67;;
22697;SDS011;11516;51.612;7.510;2022-09-09T08:32:30;6.70;;;1.60;;
22697;SDS011;11516;51.612;7.510;2022-09-09T08:35:10;6.45;;;2.03;;
22697;SDS011;11516;51.612;7.510;2022-09-09T08:38:09;5.22;;;1.80;;
22697;SDS011;11516;51.612;7.510;2022-09-09T08:40:41;3.85;;;1.58;;
22697;SDS011;11516;51.612;7.510;2022-09-09T08:43:30;4.68;;;1.70;;
22697;SDS011;11516;51.612;7.510;2022-09-09T08:46:11;4.77;;;2.10;;
22697;SDS011;11516;51.612;7.510;2022-09-09T08:48:55;6.20;;;2.63;;
22697;SDS011;11516;51.612;7.510;2022-09-09T08:51:30;6.53;;;2.28;;
22697;SDS011;11516;51.612;7.510;2022-09-09T08:54:09;3.40;;;1.60;;
22697;SDS011;11516;51.612;7.510;2022-09-09T08:56:45;8.85;;;2.30;;
22697;SDS011;11516;51.612;7.510;2022-09-09T08:59:12;6.67;;;3.00;;
22697;SDS011;11516;51.612;7.510;2022-09-09T09:04:37;5.75;;;1.90;;
22697;SDS011;11516;51.612;7.510;2022-09-09T09:10:09;4.70;;;1.65;;
22697;SDS011;11516;51.612;7.510;2022-09-09T09:12:41;4.25;;;1.67;;
22697;SDS011;11516;51.612;7.510;2022-09-09T09:15:38;4.70;;;2.10;;
22697;SDS011;11516;51.612;7.510;2022-09-09T09:18:07;7.20;;;2.42;;
22697;SDS011;11516;51.612;7.510;2022-09-09T09:23:34;4.00;;;2.10;;
22697;SDS011;11516;51.612;7.510;2022-09-09T09:26:13;7.43;;;2.03;;
22697;SDS011;11516;51.612;7.510;2022-09-09T09:28:48;8.00;;;2.40;;
22697;SDS011;11516;51.612;7.510;2022-09-09T09:31:23;4.77;;;2.00;;
22697;SDS011;11516;51.612;7.510;2022-09-09T09:33:54;9.77;;;3.42;;
22697;SDS011;11516;51.612;7.510;2022-09-09T09:36:55;5.47;;;2.63;;
22697;SDS011;11516;51.612;7.510;2022-09-09T09:39:50;7.22;;;3.00;;
22697;SDS011;11516;51.612;7.510;2022-09-09T09:42:16;4.90;;;1.90;;
22697;SDS011;11516;51.612;7.510;2022-09-09T09:44:55;4.40;;;1.90;;
22697;SDS011;11516;51.612;7.510;2022-09-09T09:47:31;4.85;;;1.90;;
22697;SDS011;11516;51.612;7.510;2022-09-09T09:49:58;4.65;;;2.05;;
22697;SDS011;11516;51.612;7.510;2022-09-09T09:52:29;7.67;;;2.30;;
22697;SDS011;11516;51.612;7.510;2022-09-09T09:55:01;4.78;;;2.00;;
22697;SDS011;11516;51.612;7.510;2022-09-09T09:57:32;4.93;;;1.90;;
22697;SDS011;11516;51.612;7.510;2022-09-09T10:00:15;6.63;;;2.33;;
22697;SDS011;11516;51.612;7.510;2022-09-09T10:02:43;4.03;;;1.90;;
22697;SDS011;11516;51.612;7.510;2022-09-09T10:05:20;4.03;;;1.80;;
22697;SDS011;11516;51.612;7.510;2022-09-09T10:07:57;7.72;;;2.00;;
22697;SDS011;11516;51.612;7.510;2022-09-09T10:13:23;4.80;;;1.60;;
22697;SDS011;11516;51.612;7.510;2022-09-09T10:16:19;6.13;;;1.80;;
22697;SDS011;11516;51.612;7.510;2022-09-09T10:18:59;4.88;;;1.45;;
22697;SDS011;11516;51.612;7.510;2022-09-09T10:33:08;8.15;;;3.10;;
22697;SDS011;11516;51.612;7.510;2022-09-09T10:35:46;8.15;;;3.47;;
22697;SDS011;11516;51.612;7.510;2022-09-09T10:38:28;7.95;;;2.72;;
22697;SDS011;11516;51.612;7.510;2022-09-09T10:47:20;7.10;;;2.30;;
22697;SDS011;11516;51.612;7.510;2022-09-09T10:50:12;4.28;;;1.90;;
22697;SDS011;11516;51.612;7.510;2022-09-09T10:52:58;6.55;;;1.85;;
22697;SDS011;11516;51.612;7.510;2022-09-09T10:55:41;5.32;;;1.40;;
22697;SDS011;11516;51.612;7.510;2022-09-09T10:58:14;4.85;;;1.75;;
22697;SDS011;11516;51.612;7.510;2022-09-09T11:01:18;4.40;;;1.60;;
22697;SDS011;11516;51.612;7.510;2022-09-09T11:03:48;6.03;;;1.50;;
22697;SDS011;11516;51.612;7.510;2022-09-09T11:06:21;2.95;;;1.50;;
22697;SDS011;11516;51.612;7.510;2022-09-09T11:09:00;5.20;;;1.67;;
22697;SDS011;11516;51.612;7.510;2022-09-09T11:11:39;6.97;;;2.17;;
22697;SDS011;11516;51.612;7.510;2022-09-09T11:14:15;2.50;;;1.67;;
22697;SDS011;11516;51.612;7.510;2022-09-09T11:16:58;3.75;;;1.20;;
22697;SDS011;11516;51.612;7.510;2022-09-09T11:19:37;3.17;;;1.20;;
22697;SDS011;11516;51.612;7.510;2022-09-09T11:22:07;4.33;;;1.37;;
22697;SDS011;11516;51.612;7.510;2022-09-09T11:24:53;3.83;;;1.60;;
22697;SDS011;11516;51.612;7.510;2022-09-09T11:27:32;3.50;;;2.10;;
22697;SDS011;11516;51.612;7.510;2022-09-09T11:39:05;2.43;;;1.20;;
22697;SDS011;11516;51.612;7.510;2022-09-09T11:41:49;5.45;;;1.45;;
22697;SDS011;11516;51.612;7.510;2022-09-09T11:44:19;3.77;;;1.70;;
22697;SDS011;11516;51.612;7.510;2022-09-09T11:46:55;2.88;;;1.30;;
22697;SDS011;11516;51.612;7.510;2022-09-09T11:49:28;4.07;;;1.60;;
22697;SDS011;11516;51.612;7.510;2022-09-09T11:52:20;3.30;;;1.60;;
22697;SDS011;11516;51.612;7.510;2022-09-09T11:58:00;5.30;;;2.30;;
22697;SDS011;11516;51.612;7.510;2022-09-09T12:00:48;3.15;;;1.20;;
22697;SDS011;11516;51.612;7.510;2022-09-09T12:03:33;2.95;;;1.30;;
22697;SDS011;11516;51.612;7.510;2022-09-09T12:06:00;3.43;;;1.30;;
22697;SDS011;11516;51.612;7.510;2022-09-09T12:08:36;3.90;;;2.08;;
22697;SDS011;11516;51.612;7.510;2022-09-09T12:11:07;6.78;;;1.88;;
22697;SDS011;11516;51.612;7.510;2022-09-09T12:13:32;3.22;;;1.60;;
22697;SDS011;11516;51.612;7.510;2022-09-09T12:15:59;2.67;;;0.98;;
22697;SDS011;11516;51.612;7.510;2022-09-09T12:18:37;4.22;;;1.98;;
22697;SDS011;11516;51.612;7.510;2022-09-09T12:23:52;4.07;;;1.88;;
22697;SDS011;11516;51.612;7.510;2022-09-09T12:29:25;2.28;;;1.08;;
22697;SDS011;11516;51.612;7.510;2022-09-09T12:32:06;8.68;;;3.63;;
22697;SDS011;11516;51.612;7.510;2022-09-09T12:34:40;9.53;;;4.20;;
22697;SDS011;11516;51.612;7.510;2022-09-09T12:37:16;11.35;;;4.97;;
22697;SDS011;11516;51.612;7.510;2022-09-09T12:40:01;13.52;;;5.72;;
22697;SDS011;11516;51.612;7.510;2022-09-09T12:42:28;7.38;;;2.53;;
22697;SDS011;11516;51.612;7.510;2022-09-09T12:44:57;13.07;;;5.35;;
22697;SDS011;11516;51.612;7.510;2022-09-09T12:47:38;7.95;;;3.33;;
22697;SDS011;11516;51.612;7.510;2022-09-09T12:50:35;3.38;;;1.10;;
22697;SDS011;11516;51.612;7.510;2022-09-09T12:53:11;2.87;;;1.27;;
22697;SDS011;11516;51.612;7.510;2022-09-09T12:56:06;4.28;;;1.30;;
22697;SDS011;11516;51.612;7.510;2022-09-09T12:58:38;3.78;;;1.30;;
22697;SDS011;11516;51.612;7.510;2022-09-09T13:01:21;3.50;;;0.95;;
22697;SDS011;11516;51.612;7.510;2022-09-09T13:03:52;6.03;;;2.23;;
22697;SDS011;11516;51.612;7.510;2022-09-09T13:06:25;7.30;;;2.70;;
22697;SDS011;11516;51.612;7.510;2022-09-09T13:08:52;4.10;;;2.00;;
22697;SDS011;11516;51.612;7.510;2022-09-09T13:11:20;3.28;;;1.40;;
22697;SDS011;11516;51.612;7.510;2022-09-09T13:13:50;2.78;;;1.40;;
22697;SDS011;11516;51.612;7.510;2022-09-09T13:16:19;4.78;;;1.50;;
22697;SDS011;11516;51.612;7.510;2022-09-09T13:18:46;3.75;;;1.67;;
22697;SDS011;11516;51.612;7.510;2022-09-09T13:21:12;2.85;;;1.55;;
22697;SDS011;11516;51.612;7.510;2022-09-09T13:23:39;3.53;;;1.58;;
22697;SDS011;11516;51.612;7.510;2022-09-09T13:26:21;4.40;;;1.33;;
22697;SDS011;11516;51.612;7.510;2022-09-09T13:28:49;3.60;;;1.95;;
22697;SDS011;11516;51.612;7.510;2022-09-09T13:31:33;4.47;;;1.80;;
22697;SDS011;11516;51.612;7.510;2022-09-09T13:34:11;3.00;;;1.40;;
22697;SDS011;11516;51.612;7.510;2022-09-09T13:37:00;3.67;;;1.80;;
22697;SDS011;11516;51.612;7.510;2022-09-09T13:39:50;4.45;;;1.60;;
22697;SDS011;11516;51.612;7.510;2022-09-09T13:42:27;3.08;;;1.40;;
22697;SDS011;11516;51.612;7.510;2022-09-09T13:44:59;2.67;;;1.17;;
22697;SDS011;11516;51.612;7.510;2022-09-09T13:47:35;2.27;;;1.30;;
22697;SDS011;11516;51.612;7.510;2022-09-09T13:50:20;5.07;;;1.50;;
22697;SDS011;11516;51.612;7.510;2022-09-09T13:52:46;4.25;;;1.60;;
22697;SDS011;11516;51.612;7.510;2022-09-09T13:55:18;3.72;;;1.80;;
22697;SDS011;11516;51.612;7.510;2022-09-09T13:57:59;4.00;;;1.77;;
22697;SDS011;11516;51.612;7.510;2022-09-09T14:00:26;6.85;;;2.10;;
22697;SDS011;11516;51.612;7.510;2022-09-09T14:02:55;4.20;;;2.00;;
22697;SDS011;11516;51.612;7.510;2022-09-09T14:05:21;3.33;;;1.60;;
22697;SDS011;11516;51.612;7.510;2022-09-09T14:07:47;4.73;;;2.30;;
22697;SDS011;11516;51.612;7.510;2022-09-09T14:10:14;3.20;;;1.50;;
22697;SDS011;11516;51.612;7.510;2022-09-09T14:12:40;2.40;;;1.20;;
22697;SDS011;11516;51.612;7.510;2022-09-09T14:15:06;2.15;;;1.20;;
22697;SDS011;11516;51.612;7.510;2022-09-09T14:17:34;3.92;;;1.38;;
22697;SDS011;11516;51.612;7.510;2022-09-09T14:20:01;1.98;;;0.90;;
22697;SDS011;11516;51.612;7.510;2022-09-09T14:22:33;3.90;;;1.03;;
22697;SDS011;11516;51.612;7.510;2022-09-09T14:25:00;5.97;;;1.43;;
22697;SDS011;11516;51.612;7.510;2022-09-09T14:27:28;3.58;;;1.30;;
22697;SDS011;11516;51.612;7.510;2022-09-09T14:29:55;2.20;;;1.10;;
22697;SDS011;11516;51.612;7.510;2022-09-09T14:32:20;3.00;;;1.63;;
22697;SDS011;11516;51.612;7.510;2022-09-09T14:34:48;3.97;;;1.23;;
22697;SDS011;11516;51.612;7.510;2022-09-09T14:37:14;2.97;;;0.90;;
22697;SDS011;11516;51.612;7.510;2022-09-09T14:39:41;2.55;;;1.27;;
22697;SDS011;11516;51.612;7.510;2022-09-09T14:42:08;3.25;;;1.17;;
22697;SDS011;11516;51.612;7.510;2022-09-09T14:44:36;1.80;;;1.08;;
22697;SDS011;11516;51.612;7.510;2022-09-09T14:47:03;3.22;;;1.40;;
22697;SDS011;11516;51.612;7.510;2022-09-09T14:49:35;2.95;;;1.20;;
22697;SDS011;11516;51.612;7.510;2022-09-09T14:52:01;3.05;;;1.10;;
22697;SDS011;11516;51.612;7.510;2022-09-09T14:54:27;3.90;;;1.40;;
22697;SDS011;11516;51.612;7.510;2022-09-09T14:56:53;2.90;;;1.48;;
22697;SDS011;11516;51.612;7.510;2022-09-09T14:59:19;2.47;;;1.02;;
22697;SDS011;11516;51.612;7.510;2022-09-09T15:01:44;2.97;;;1.13;;
22697;SDS011;11516;51.612;7.510;2022-09-09T15:04:10;3.53;;;1.20;;
22697;SDS011;11516;51.612;7.510;2022-09-09T15:06:37;2.33;;;1.15;;
22697;SDS011;11516;51.612;7.510;2022-09-09T15:09:04;2.17;;;1.00;;
22697;SDS011;11516;51.612;7.510;2022-09-09T15:11:30;2.72;;;1.10;;
22697;SDS011;11516;51.612;7.510;2022-09-09T15:14:02;3.57;;;1.20;;
22697;SDS011;11516;51.612;7.510;2022-09-09T15:16:28;3.08;;;1.40;;
22697;SDS011;11516;51.612;7.510;2022-09-09T15:18:55;3.70;;;1.30;;
22697;SDS011;11516;51.612;7.510;2022-09-09T15:21:24;5.88;;;2.47;;
22697;SDS011;11516;51.612;7.510;2022-09-09T15:23:55;2.90;;;1.95;;
22697;SDS011;11516;51.612;7.510;2022-09-09T15:26:21;5.40;;;1.85;;
22697;SDS011;11516;51.612;7.510;2022-09-09T15:28:47;2.58;;;1.38;;
22697;SDS011;11516;51.612;7.510;2022-09-09T15:31:17;7.18;;;3.10;;
22697;SDS011;11516;51.612;7.510;2022-09-09T15:33:57;6.53;;;3.15;;
22697;SDS011;11516;51.612;7.510;2022-09-09T15:36:31;9.20;;;3.38;;
22697;SDS011;11516;51.612;7.510;2022-09-09T15:39:08;4.97;;;2.73;;
22697;SDS011;11516;51.612;7.510;2022-09-09T15:41:37;5.07;;;2.13;;
22697;SDS011;11516;51.612;7.510;2022-09-09T15:44:03;5.10;;;1.77;;
22697;SDS011;11516;51.612;7.510;2022-09-09T15:51:38;8.20;;;2.70;;
22697;SDS011;11516;51.612;7.510;2022-09-09T15:54:19;5.40;;;2.13;;
22697;SDS011;11516;51.612;7.510;2022-09-09T15:56:54;4.88;;;1.90;;
22697;SDS011;11516;51.612;7.510;2022-09-09T15:59:22;0.40;;;0.40;;
22697;SDS011;11516;51.612;7.510;2022-09-09T16:01:48;2.70;;;0.90;;
22697;SDS011;11516;51.612;7.510;2022-09-09T16:04:17;0.40;;;0.40;;
22697;SDS011;11516;51.612;7.510;2022-09-09T16:06:53;0.10;;;0.10;;
22697;SDS011;11516;51.612;7.510;2022-09-09T16:09:28;0.10;;;0.10;;
22697;SDS011;11516;51.612;7.510;2022-09-09T16:11:57;0.00;;;0.00;;
22697;SDS011;11516;51.612;7.510;2022-09-09T16:14:25;0.13;;;0.13;;
22697;SDS011;11516;51.612;7.510;2022-09-09T16:16:52;0.20;;;0.20;;
22697;SDS011;11516;51.612;7.510;2022-09-09T16:19:17;0.60;;;0.50;;
22697;SDS011;11516;51.612;7.510;2022-09-09T16:21:45;0.40;;;0.40;;
22697;SDS011;11516;51.612;7.510;2022-09-09T16:24:13;0.30;;;0.20;;
22697;SDS011;11516;51.612;7.510;2022-09-09T16:26:42;0.03;;;0.03;;
22697;SDS011;11516;51.612;7.510;2022-09-09T16:29:12;0.30;;;0.13;;
22697;SDS011;11516;51.612;7.510;2022-09-09T16:31:39;0.20;;;0.20;;
22697;SDS011;11516;51.612;7.510;2022-09-09T16:34:05;0.30;;;0.20;;
22697;SDS011;11516;51.612;7.510;2022-09-09T16:36:32;0.10;;;0.10;;
22697;SDS011;11516;51.612;7.510;2022-09-09T16:39:05;0.00;;;0.00;;
22697;SDS011;11516;51.612;7.510;2022-09-09T16:41:33;0.00;;;0.00;;
22697;SDS011;11516;51.612;7.510;2022-09-09T16:44:00;0.10;;;0.10;;
22697;SDS011;11516;51.612;7.510;2022-09-09T16:46:29;0.10;;;0.00;;
22697;SDS011;11516;51.612;7.510;2022-09-09T16:48:56;0.35;;;0.35;;
22697;SDS011;11516;51.612;7.510;2022-09-09T16:51:30;0.00;;;0.00;;
22697;SDS011;11516;51.612;7.510;2022-09-09T16:53:58;0.05;;;0.05;;
22697;SDS011;11516;51.612;7.510;2022-09-09T16:56:28;0.60;;;0.15;;
22697;SDS011;11516;51.612;7.510;2022-09-09T16:58:55;0.10;;;0.10;;
22697;SDS011;11516;51.612;7.510;2022-09-09T17:01:23;0.30;;;0.30;;
22697;SDS011;11516;51.612;7.510;2022-09-09T17:03:56;0.00;;;0.00;;
22697;SDS011;11516;51.612;7.510;2022-09-09T17:06:23;0.20;;;0.20;;
22697;SDS011;11516;51.612;7.510;2022-09-09T17:08:54;0.30;;;0.30;;
22697;SDS011;11516;51.612;7.510;2022-09-09T17:11:20;0.25;;;0.25;;
22697;SDS011;11516;51.612;7.510;2022-09-09T17:13:46;0.10;;;0.10;;
22697;SDS011;11516;51.612;7.510;2022-09-09T17:16:13;0.20;;;0.10;;
22697;SDS011;11516;51.612;7.510;2022-09-09T17:18:40;0.10;;;0.10;;
22697;SDS011;11516;51.612;7.510;2022-09-09T17:21:12;0.25;;;0.20;;
22697;SDS011;11516;51.612;7.510;2022-09-09T17:23:39;0.50;;;0.30;;
22697;SDS011;11516;51.612;7.510;2022-09-09T17:26:06;0.00;;;0.00;;
22697;SDS011;11516;51.612;7.510;2022-09-09T17:28:34;0.10;;;0.10;;
22697;SDS011;11516;51.612;7.510;2022-09-09T17:31:05;0.30;;;0.30;;